createdAt,value
2022-11-26T00:10:51.510Z,91.0
2022-11-26T00:24:51.718Z,91.0
2022-11-26T00:38:51.931Z,91.0
2022-11-26T00:52:51.971Z,90.0
2022-11-26T01:06:51.976Z,85.0
2022-11-26T01:20:51.974Z,82.0
2022-11-26T01:34:52.004Z,83.0
2022-11-26T01:48:52.086Z,75.0
2022-11-26T02:02:52.522Z,69.0
2022-11-26T02:16:52.733Z,71.0
2022-11-26T02:30:52.711Z,74.0
2022-11-26T02:44:52.741Z,81.0
2022-11-26T02:58:52.841Z,86.0
2022-11-26T03:12:52.815Z,89.0
2022-11-26T03:26:52.817Z,90.0
2022-11-26T03:40:52.954Z,90.0
2022-11-26T03:54:52.966Z,89.0
2022-11-26T04:08:52.964Z,88.0
2022-11-26T04:22:53.012Z,87.0
2022-11-26T04:36:52.980Z,88.0
2022-11-26T04:50:53.034Z,88.0
2022-11-26T05:04:53.119Z,84.0
2022-11-26T05:18:53.104Z,80.0
2022-11-26T05:32:53.425Z,81.0
2022-11-26T05:46:53.941Z,85.0
2022-11-26T06:00:54.158Z,87.0
2022-11-26T06:14:54.152Z,85.0
2022-11-26T06:29:54.177Z,86.0
2022-11-26T06:44:58.407Z,84.0
2022-11-26T06:59:54.345Z,83.0
2022-11-26T07:14:54.415Z,82.0
2022-11-26T07:29:54.746Z,82.0
2022-11-26T07:44:54.611Z,82.0
2022-11-26T07:59:54.685Z,66.0
2022-11-26T08:14:54.793Z,64.0
2022-11-26T08:29:54.781Z,66.0
2022-11-26T08:44:54.791Z,60.0
2022-11-26T08:59:54.816Z,53.0
2022-11-26T09:14:54.906Z,51.0
2022-11-26T09:29:54.816Z,47.0
2022-11-26T09:44:54.823Z,46.0
2022-11-26T09:59:54.849Z,48.0
2022-11-26T10:14:54.877Z,46.0
2022-11-26T10:29:54.909Z,49.0
2022-11-26T10:44:54.912Z,48.0
2022-11-26T10:59:54.922Z,51.0
2022-11-26T11:14:54.923Z,51.0
2022-11-26T11:29:54.972Z,48.0
2022-11-26T11:44:54.991Z,48.0
2022-11-26T11:59:55.031Z,45.0
2022-11-26T12:14:55.016Z,46.0
2022-11-26T12:29:55.069Z,45.0
2022-11-26T12:44:55.088Z,46.0
2022-11-26T12:59:55.133Z,45.0
2022-11-26T13:14:55.103Z,45.0
2022-11-26T13:29:55.143Z,46.0
2022-11-26T13:44:55.148Z,46.0
2022-11-26T13:59:55.192Z,49.0
2022-11-26T14:15:55.204Z,49.0
2022-11-26T14:30:55.326Z,50.0
2022-11-26T14:45:55.427Z,52.0
2022-11-26T15:00:55.419Z,60.0
2022-11-26T15:15:55.477Z,70.0
2022-11-26T15:30:55.587Z,81.0
2022-11-26T15:45:55.617Z,81.0
2022-11-26T16:01:55.630Z,82.0
2022-11-26T16:16:55.594Z,84.0
2022-11-26T16:30:55.648Z,84.0
2022-11-26T16:44:58.008Z,86.0
2022-11-26T16:58:55.631Z,86.0
2022-11-26T17:12:55.680Z,87.0
2022-11-26T17:26:55.770Z,87.0
2022-11-26T17:41:55.737Z,88.0
2022-11-26T17:56:55.756Z,83.0
2022-11-26T18:10:55.793Z,83.0
2022-11-26T18:24:57.116Z,85.0
2022-11-26T18:38:55.788Z,86.0
2022-11-26T18:52:55.792Z,85.0
2022-11-26T19:06:55.802Z,84.0
2022-11-26T19:20:55.884Z,87.0
2022-11-26T19:34:55.910Z,85.0
2022-11-26T19:48:56.062Z,85.0
2022-11-26T20:02:56.028Z,84.0
2022-11-26T20:17:00.644Z,85.0
2022-11-26T20:30:56.055Z,86.0
2022-11-26T20:44:56.146Z,86.0
2022-11-26T20:58:56.434Z,87.0
2022-11-26T21:12:56.441Z,88.0
2022-11-26T21:26:56.406Z,86.0
2022-11-26T21:40:56.451Z,87.0
2022-11-26T21:54:59.594Z,88.0
2022-11-26T22:08:56.698Z,88.0
2022-11-26T22:22:56.930Z,89.0
2022-11-26T22:36:56.923Z,89.0
2022-11-26T22:50:57.103Z,89.0
2022-11-26T23:04:57.185Z,90.0
2022-11-26T23:18:57.216Z,91.0
2022-11-26T23:32:57.303Z,90.0
2022-11-26T23:47:07.531Z,91.0
